Ruddington, United Kingdom
Current Conditions -  °F | °C
As of 5:20 AM on Tuesday 21 Oct 2014 (Local Time) from EGNX Reporting Station
Light Rain Light Rain  
Wind Chill: 54°   Ceiling: 2200
Heat Index: 54°   Visibility: 6mi
Dew Point: 52°   Wind: 26mph
Humidity: 94%   Direction: 200°SSW
Pressure: 29.44"   Gusts: NA
Location:  52.89°N, 1.15°W
Report Text: EGNX 210420Z 20023KT 9999 -RA SCT010 BKN022 12/11 Q0997
Loading
Personal Weather Stations






























Interactive Weather Map New forecast layout! Learn more

10-Day Weather Forecast

Advertisements
Track Severe Weather on mobile